Time;durP1;ratioP1;P1;durP2;ratioP2;P2;SDS_P1;SDS_P2;PMS_P1;PMS_P2;Temp;Humidity;BMP_temperature;BMP_pressure;BME280_temperature;BME280_humidity;BME280_pressure;Samples;Min_cycle;Max_cycle;Signal;HPM_P1;HPM_P2
2022/03/28 00:01:13;;;;;;;63.08;36.85;;;;;;;7.76;81.98;101031.09;5070243;28;20033;-68
2022/03/28 00:03:39;;;;;;;61.08;36.47;;;;;;;7.73;82.40;101027.75;5070212;28;20039;-65
2022/03/28 00:06:07;;;;;;;59.33;34.40;;;;;;;7.70;81.67;101025.28;5051893;28;20157;-67
2022/03/28 00:08:33;;;;;;;61.92;34.55;;;;;;;7.68;81.68;101021.91;5062338;28;20070;-67
2022/03/28 00:10:58;;;;;;;61.58;35.10;;;;;;;7.65;82.15;101029.84;5071674;28;20029;-69
2022/03/28 00:13:23;;;;;;;58.25;35.13;;;;;;;7.61;82.28;101030.91;5075672;28;20020;-69
2022/03/28 00:15:49;;;;;;;56.90;33.72;;;;;;;7.57;81.92;101021.50;5076721;28;20510;-67
2022/03/28 00:18:14;;;;;;;59.13;34.42;;;;;;;7.51;81.79;101025.22;5075536;28;20033;-66
2022/03/28 00:20:39;;;;;;;58.03;34.03;;;;;;;7.47;82.73;101024.50;5073740;28;20036;-63
2022/03/28 00:23:05;;;;;;;61.88;34.97;;;;;;;7.45;83.05;101022.84;5071036;28;20033;-66
2022/03/28 00:25:31;;;;;;;62.95;34.50;;;;;;;7.39;82.62;101016.16;5077150;28;20026;-67
2022/03/28 00:27:56;;;;;;;67.70;36.05;;;;;;;7.35;82.98;101013.75;5075686;28;20478;-67
2022/03/28 00:30:21;;;;;;;65.30;37.42;;;;;;;7.32;83.09;101009.50;5072760;28;20719;-67
2022/03/28 00:35:16;;;;;;;66.97;37.03;;;;;;;7.32;83.42;101006.03;5035484;28;20052;-73
2022/03/28 00:37:42;;;;;;;59.67;36.10;;;;;;;7.31;83.83;101001.75;5025154;28;20029;-71
2022/03/28 00:40:09;;;;;;;69.63;39.25;;;;;;;7.24;83.11;100990.72;5039005;28;20024;-72
2022/03/28 00:42:36;;;;;;;62.75;36.55;;;;;;;7.20;83.08;100989.97;5037971;28;20083;-73
2022/03/28 00:45:05;;;;;;;64.60;39.80;;;;;;;7.18;83.50;100985.72;5030733;28;20029;-72
2022/03/28 00:47:30;;;;;;;62.80;37.03;;;;;;;7.16;83.39;100982.38;5041959;28;20547;-74
2022/03/28 00:49:56;;;;;;;70.07;38.55;;;;;;;7.16;83.29;100984.97;5033497;28;20076;-73
2022/03/28 00:52:21;;;;;;;63.53;37.50;;;;;;;7.15;83.61;100983.25;5030839;28;20021;-74
2022/03/28 00:54:47;;;;;;;75.97;37.35;;;;;;;7.09;83.75;100973.09;5042392;28;20155;-73
2022/03/28 00:57:12;;;;;;;74.00;40.30;;;;;;;7.03;84.21;100974.19;5046042;28;20071;-70
2022/03/28 00:59:37;;;;;;;85.25;42.75;;;;;;;6.97;84.33;100969.19;5038632;28;20041;-74
2022/03/28 01:02:03;;;;;;;76.68;40.50;;;;;;;6.90;84.91;100970.41;5043140;28;20044;-73
2022/03/28 01:04:29;;;;;;;74.63;40.67;;;;;;;6.90;85.22;100963.41;5030560;28;20021;-73
2022/03/28 01:06:55;;;;;;;71.25;40.05;;;;;;;6.86;84.67;100961.84;5035578;28;20486;-74
2022/03/28 01:09:20;;;;;;;70.28;40.80;;;;;;;6.85;85.45;100967.09;5040478;28;20037;-75
2022/03/28 01:11:46;;;;;;;75.13;43.30;;;;;;;6.79;85.70;100965.59;5023880;28;20033;-74
2022/03/28 01:14:12;;;;;;;69.28;41.38;;;;;;;6.79;85.54;100966.47;5033971;28;20082;-71
2022/03/28 01:19:24;;;;;;;73.97;45.25;;;;;;;6.76;85.91;100965.72;5034227;28;20390;-72
2022/03/28 01:21:51;;;;;;;86.28;48.30;;;;;;;6.81;86.33;100955.09;5016926;28;20044;-71
2022/03/28 01:24:16;;;;;;;79.22;46.58;;;;;;;6.80;86.18;100943.84;5035099;28;20037;-73
2022/03/28 01:26:42;;;;;;;80.22;45.00;;;;;;;6.79;86.42;100944.75;5040186;28;20383;-73
2022/03/28 01:29:07;;;;;;;78.28;46.45;;;;;;;6.74;85.61;100936.25;5034324;28;20038;-73
2022/03/28 01:31:37;;;;;;;84.30;48.05;;;;;;;6.65;86.37;100942.69;5039986;28;20024;-73
2022/03/28 01:34:03;;;;;;;79.38;46.92;;;;;;;6.62;86.71;100935.00;5038711;28;20025;-74
2022/03/28 01:36:32;;;;;;;87.07;48.47;;;;;;;6.60;86.64;100930.75;5042642;28;20037;-71
2022/03/28 01:38:57;;;;;;;87.90;50.97;;;;;;;6.61;86.36;100935.06;5038249;28;20098;-72
2022/03/28 01:41:22;;;;;;;90.18;49.75;;;;;;;6.57;86.92;100929.13;5034925;28;20472;-71
2022/03/28 01:43:47;;;;;;;88.53;50.95;;;;;;;6.56;86.43;100927.41;5042907;28;20560;-71
2022/03/28 01:46:13;;;;;;;83.25;49.80;;;;;;;6.52;87.92;100921.47;5031406;28;20021;-72
2022/03/28 01:48:38;;;;;;;81.43;48.45;;;;;;;6.54;87.17;100930.09;5013959;28;20030;-73
2022/03/28 01:51:03;;;;;;;79.63;45.50;;;;;;;6.52;86.56;100918.88;5030168;28;20124;-69
2022/03/28 01:53:29;;;;;;;95.13;48.15;;;;;;;6.52;86.18;100924.09;5037776;28;20041;-70
2022/03/28 01:55:54;;;;;;;88.57;49.22;;;;;;;6.49;85.86;100920.78;5026971;28;20080;-71
2022/03/28 01:58:19;;;;;;;80.63;46.53;;;;;;;6.51;86.50;100924.16;5042595;28;20500;-70
2022/03/28 02:00:45;;;;;;;85.60;48.63;;;;;;;6.51;86.36;100917.19;5041432;28;20033;-73
2022/03/28 02:03:10;;;;;;;81.60;48.08;;;;;;;6.52;86.73;100916.28;5052570;28;20029;-71
2022/03/28 02:05:35;;;;;;;81.28;48.35;;;;;;;6.49;86.82;100907.75;5039270;28;20033;-70
2022/03/28 02:08:02;;;;;;;89.75;50.45;;;;;;;6.44;86.81;100912.28;5052098;28;20101;-74
2022/03/28 02:10:27;;;;;;;88.63;49.55;;;;;;;6.40;86.80;100910.72;5030147;28;20025;-74
2022/03/28 02:12:53;;;;;;;82.95;48.95;;;;;;;6.37;87.20;100913.44;5034642;28;20025;-71
2022/03/28 02:15:20;;;;;;;85.80;48.70;;;;;;;6.30;87.45;100905.00;5045199;28;20720;-73
2022/03/28 02:17:46;;;;;;;94.28;51.35;;;;;;;6.24;87.61;100908.72;5037656;28;20079;-74
2022/03/28 02:20:13;;;;;;;84.50;48.33;;;;;;;6.25;87.79;100899.13;5028951;28;20513;-75
2022/03/28 02:22:40;;;;;;;88.40;51.53;;;;;;;6.20;88.18;100895.88;5029411;28;20020;-75
2022/03/28 02:25:07;;;;;;;88.90;51.55;;;;;;;6.19;88.39;100899.38;5041147;28;20017;-75
2022/03/28 02:27:33;;;;;;;100.22;54.78;;;;;;;6.18;88.43;100888.09;5036743;28;20067;-72
2022/03/28 02:29:59;;;;;;;99.97;55.70;;;;;;;6.16;88.67;100889.94;5040081;28;20118;-75
2022/03/28 02:32:24;;;;;;;102.88;54.53;;;;;;;6.13;88.37;100886.59;5037454;28;20065;-74
2022/03/28 02:34:49;;;;;;;102.15;53.92;;;;;;;6.13;88.55;100890.06;5016488;28;20049;-75
2022/03/28 02:37:15;;;;;;;104.85;56.72;;;;;;;6.09;88.54;100883.28;5040303;28;20475;-72
2022/03/28 02:39:40;;;;;;;98.25;56.42;;;;;;;6.08;88.34;100876.34;5039333;28;20044;-73
2022/03/28 02:42:06;;;;;;;110.40;59.05;;;;;;;6.10;88.45;100878.91;5029708;28;20032;-73
2022/03/28 02:44:31;;;;;;;102.15;55.10;;;;;;;6.06;87.95;100878.19;5034686;28;20029;-72
2022/03/28 02:46:57;;;;;;;106.60;57.25;;;;;;;6.02;88.50;100871.41;5011388;28;20053;-71
2022/03/28 02:49:22;;;;;;;97.22;54.22;;;;;;;6.02;88.25;100871.41;5040879;28;20044;-69
2022/03/28 02:51:48;;;;;;;104.18;56.83;;;;;;;6.02;87.87;100880.06;5037425;28;20026;-72
2022/03/28 02:54:13;;;;;;;127.28;57.88;;;;;;;5.99;87.69;100871.50;5040954;28;20116;-72
2022/03/28 02:56:38;;;;;;;123.32;56.63;;;;;;;5.96;88.39;100877.69;5035639;28;20033;-72
2022/03/28 02:59:04;;;;;;;105.43;56.83;;;;;;;5.92;88.55;100876.09;5039982;28;20037;-72
2022/03/28 03:01:29;;;;;;;102.70;56.97;;;;;;;5.90;88.73;100875.28;5034419;28;20020;-71
2022/03/28 03:03:55;;;;;;;101.82;54.28;;;;;;;5.89;88.57;100875.34;5036987;28;20032;-72
2022/03/28 03:06:20;;;;;;;105.68;56.15;;;;;;;5.86;88.42;100881.53;5035644;28;20079;-72
2022/03/28 03:08:45;;;;;;;107.53;57.50;;;;;;;5.83;88.91;100873.84;5033263;28;20022;-73
2022/03/28 03:11:11;;;;;;;108.55;57.40;;;;;;;5.81;88.76;100868.66;5034687;28;20042;-72
2022/03/28 03:13:37;;;;;;;102.18;56.00;;;;;;;5.81;89.07;100862.63;5014880;28;20021;-73
2022/03/28 03:16:03;;;;;;;108.03;58.15;;;;;;;5.82;88.76;100870.38;4996064;28;20057;-72
2022/03/28 03:18:29;;;;;;;116.07;60.75;;;;;;;5.82;88.94;100864.31;5038782;28;20553;-73
2022/03/28 03:20:54;;;;;;;120.40;61.47;;;;;;;5.81;89.74;100858.25;5033007;28;20050;-74
2022/03/28 03:23:19;;;;;;;115.80;62.03;;;;;;;5.79;89.76;100848.84;5036096;28;20405;-73
2022/03/28 03:25:45;;;;;;;120.80;61.63;;;;;;;5.75;89.91;100850.69;5033619;28;20036;-72
2022/03/28 03:28:10;;;;;;;116.82;63.10;;;;;;;5.75;89.85;100845.50;5030378;28;20079;-72
2022/03/28 03:30:35;;;;;;;117.80;62.05;;;;;;;5.70;89.41;100838.75;5035283;28;20048;-73
2022/03/28 03:33:01;;;;;;;133.15;63.60;;;;;;;5.69;89.81;100848.31;5031290;28;20044;-70
2022/03/28 03:35:26;;;;;;;139.27;62.65;;;;;;;5.66;89.71;100851.03;5035491;28;20091;-72
2022/03/28 03:37:51;;;;;;;119.00;60.25;;;;;;;5.63;90.03;100847.69;5028306;28;20622;-72
2022/03/28 03:40:17;;;;;;;118.03;61.97;;;;;;;5.66;90.15;100850.19;5029166;28;20079;-73
2022/03/28 03:42:42;;;;;;;124.18;61.42;;;;;;;5.61;90.08;100842.56;5029174;28;20022;-72
2022/03/28 03:45:08;;;;;;;124.80;62.03;;;;;;;5.55;89.55;100841.03;5036945;28;20079;-72
2022/03/28 03:47:34;;;;;;;111.10;58.15;;;;;;;5.53;90.04;100842.00;5032126;28;20037;-73
2022/03/28 03:50:00;;;;;;;109.25;59.78;;;;;;;5.52;90.15;100838.53;5037523;28;20097;-71
2022/03/28 03:52:25;;;;;;;113.60;59.17;;;;;;;5.51;89.68;100836.00;5043728;28;20013;-72
2022/03/28 03:54:50;;;;;;;112.68;58.50;;;;;;;5.49;89.86;100835.22;5035704;28;20021;-73
2022/03/28 03:57:15;;;;;;;119.45;62.28;;;;;;;5.45;89.89;100836.22;5042005;28;20438;-70
2022/03/28 03:59:41;;;;;;;109.53;57.85;;;;;;;5.40;89.43;100826.00;5041829;28;20044;-71
2022/03/28 04:02:06;;;;;;;122.47;63.53;;;;;;;5.36;90.10;100824.41;5039274;28;20030;-73
2022/03/28 04:04:31;;;;;;;115.78;60.00;;;;;;;5.34;90.85;100831.44;5040664;28;20026;-74
2022/03/28 04:06:57;;;;;;;128.05;63.78;;;;;;;5.32;90.70;100828.03;5038072;28;20045;-74
2022/03/28 04:09:22;;;;;;;124.70;61.63;;;;;;;5.31;90.60;100814.19;5035037;28;20434;-73
2022/03/28 04:11:47;;;;;;;117.95;59.08;;;;;;;5.31;90.17;100815.94;5023488;28;20061;-72
2022/03/28 04:14:14;;;;;;;124.97;62.60;;;;;;;5.25;90.18;100813.56;5036669;28;20441;-71
2022/03/28 04:16:39;;;;;;;129.57;62.70;;;;;;;5.23;91.23;100815.38;5039522;28;20589;-69
2022/03/28 04:19:04;;;;;;;131.52;63.20;;;;;;;5.22;91.09;100817.09;5038665;28;20167;-73
2022/03/28 04:21:30;;;;;;;127.75;61.58;;;;;;;5.18;91.42;100812.06;5037193;28;20056;-71
2022/03/28 04:23:55;;;;;;;128.45;63.33;;;;;;;5.23;91.55;100807.56;5033219;28;20036;-70
2022/03/28 04:26:20;;;;;;;127.53;61.45;;;;;;;5.21;90.92;100811.97;5034475;28;20067;-71
2022/03/28 04:28:45;;;;;;;119.28;59.72;;;;;;;5.18;90.79;100809.47;5036870;28;20125;-73
2022/03/28 04:31:11;;;;;;;127.15;62.30;;;;;;;5.14;90.68;100798.34;5038643;28;20075;-73
2022/03/28 04:33:36;;;;;;;126.18;59.90;;;;;;;5.15;90.81;100796.59;5033591;28;20056;-74
2022/03/28 04:36:02;;;;;;;137.48;63.65;;;;;;;5.13;90.76;100790.59;5039386;28;20442;-73
2022/03/28 04:38:27;;;;;;;121.90;58.55;;;;;;;5.16;91.29;100799.16;5034316;28;20069;-70
2022/03/28 04:40:53;;;;;;;130.05;61.65;;;;;;;5.14;90.92;100797.50;5025280;28;20392;-73
2022/03/28 04:43:20;;;;;;;131.20;60.78;;;;;;;5.14;91.16;100798.34;5031526;28;20037;-74
2022/03/28 04:45:46;;;;;;;118.60;59.72;;;;;;;5.15;90.79;100794.84;5032000;28;20034;-72
2022/03/28 04:48:11;;;;;;;116.35;58.70;;;;;;;5.12;91.14;100796.69;5033224;28;20037;-73
2022/03/28 04:50:36;;;;;;;130.20;61.78;;;;;;;5.09;91.25;100790.72;5041943;28;20029;-72
2022/03/28 04:53:02;;;;;;;118.28;59.13;;;;;;;5.09;91.62;100788.13;5038933;28;20044;-73
2022/03/28 04:55:27;;;;;;;128.95;62.05;;;;;;;5.05;91.12;100783.94;5042990;28;20032;-71
2022/03/28 04:57:53;;;;;;;120.13;58.22;;;;;;;5.00;91.44;100780.63;5036341;28;20071;-71
2022/03/28 05:00:18;;;;;;;122.30;61.05;;;;;;;5.01;92.02;100776.31;5023682;28;20047;-75
2022/03/28 05:02:43;;;;;;;116.68;58.80;;;;;;;5.00;92.03;100780.63;5037731;28;20041;-76
2022/03/28 05:05:09;;;;;;;127.00;61.63;;;;;;;5.04;92.06;100787.44;5039123;28;20042;-72
2022/03/28 05:07:36;;;;;;;138.32;63.30;;;;;;;5.06;91.97;100787.38;5040389;28;20341;-74
2022/03/28 05:10:03;;;;;;;129.45;59.25;;;;;;;5.31;92.99;100779.53;5015568;28;20757;-73
2022/03/28 05:12:28;;;;;;;135.63;64.18;;;;;;;5.41;91.36;100791.28;5021298;28;20475;-73
2022/03/28 05:14:55;;;;;;;155.52;63.95;;;;;;;5.32;90.54;100783.81;5030206;28;20044;-71
2022/03/28 05:17:25;;;;;;;139.75;62.92;;;;;;;5.26;91.00;100778.84;5040532;28;20069;-72
2022/03/28 05:19:51;;;;;;;137.80;63.53;;;;;;;5.25;91.10;100779.75;5039169;28;20041;-73
2022/03/28 05:22:18;;;;;;;134.13;61.58;;;;;;;5.24;90.92;100783.28;5038516;28;20028;-70
2022/03/28 05:24:43;;;;;;;139.48;60.20;;;;;;;5.20;91.34;100785.13;5039965;28;20506;-69
2022/03/28 05:27:09;;;;;;;130.23;58.88;;;;;;;5.21;91.62;100780.78;5038637;28;20044;-70
2022/03/28 05:29:34;;;;;;;125.55;58.70;;;;;;;5.23;91.41;100772.03;5034816;28;20036;-73
2022/03/28 05:32:01;;;;;;;128.70;60.60;;;;;;;5.26;91.95;100776.25;5030253;28;20056;-72
2022/03/28 05:34:28;;;;;;;131.48;61.60;;;;;;;5.31;92.10;100777.78;5034904;28;20060;-72
2022/03/28 05:36:54;;;;;;;125.22;59.85;;;;;;;5.31;91.47;100771.75;5040133;28;20033;-72
2022/03/28 05:39:19;;;;;;;131.00;60.97;;;;;;;5.31;91.59;100774.34;5041928;28;20108;-73
2022/03/28 05:41:45;;;;;;;131.20;57.42;;;;;;;5.35;91.34;100778.50;5040599;28;20033;-73
2022/03/28 05:44:10;;;;;;;146.75;61.05;;;;;;;5.37;91.01;100770.66;5045478;28;20525;-72
2022/03/28 05:46:36;;;;;;;138.05;62.25;;;;;;;5.42;91.21;100779.13;5030495;28;20021;-72
2022/03/28 05:49:01;;;;;;;123.63;58.75;;;;;;;5.39;90.85;100767.09;5036961;28;20086;-73
2022/03/28 05:51:26;;;;;;;147.70;61.17;;;;;;;5.47;90.79;100772.84;5041546;28;20048;-73
2022/03/28 05:53:52;;;;;;;149.23;63.40;;;;;;;5.51;91.06;100769.22;5025314;28;20033;-74
2022/03/28 05:56:17;;;;;;;163.82;63.65;;;;;;;5.52;90.63;100770.91;5049016;28;21726;-69
2022/03/28 05:58:43;;;;;;;134.88;59.45;;;;;;;5.61;90.38;100774.94;5050255;28;20038;-72
2022/03/28 06:01:09;;;;;;;135.82;60.40;;;;;;;5.62;90.29;100776.59;5035411;28;20032;-72
2022/03/28 06:03:34;;;;;;;136.20;60.33;;;;;;;5.66;90.55;100770.38;5046462;28;20025;-72
2022/03/28 06:06:03;;;;;;;130.93;61.90;;;;;;;5.73;90.30;100766.63;5044589;28;20038;-72
2022/03/28 06:08:28;;;;;;;144.82;62.03;;;;;;;5.77;90.28;100767.38;5032256;28;20124;-74
2022/03/28 06:10:54;;;;;;;156.32;64.80;;;;;;;5.80;90.17;100762.88;5036966;28;20049;-72
2022/03/28 06:13:19;;;;;;;158.35;63.13;;;;;;;5.87;90.05;100760.91;5033143;28;20021;-74
2022/03/28 06:15:44;;;;;;;156.02;64.45;;;;;;;5.93;90.36;100759.81;5032954;28;20124;-73
2022/03/28 06:18:10;;;;;;;154.82;65.90;;;;;;;5.95;89.93;100760.63;5039019;28;20140;-73
2022/03/28 06:20:35;;;;;;;151.82;65.13;;;;;;;6.04;89.90;100768.91;5031935;28;20037;-73
2022/03/28 06:23:02;;;;;;;159.13;64.88;;;;;;;6.17;89.87;100758.84;5019492;28;20038;-73
2022/03/28 06:25:28;;;;;;;154.18;64.88;;;;;;;6.26;89.23;100760.19;5013696;28;20344;-72
2022/03/28 06:27:53;;;;;;;152.93;65.18;;;;;;;6.30;88.97;100752.22;5034373;28;20471;-74
2022/03/28 06:30:18;;;;;;;143.77;63.13;;;;;;;6.35;88.70;100753.78;5031740;28;20045;-72
2022/03/28 06:32:44;;;;;;;131.98;62.88;;;;;;;6.42;88.66;100748.25;5038567;28;20057;-73
2022/03/28 06:35:09;;;;;;;151.15;63.10;;;;;;;6.48;88.79;100755.78;5048083;23;20053;-67
2022/03/28 06:37:35;;;;;;;186.63;65.20;;;;;;;6.56;88.84;100755.47;5030237;28;20018;-64
2022/03/28 06:40:03;;;;;;;146.43;61.03;;;;;;;6.65;88.62;100755.06;5030602;28;20609;-65
2022/03/28 06:42:29;;;;;;;127.18;59.97;;;;;;;6.68;88.21;100748.91;5031025;28;20513;-66
2022/03/28 06:44:54;;;;;;;132.38;60.80;;;;;;;6.79;88.39;100749.28;5022930;28;20443;-69
2022/03/28 06:47:20;;;;;;;129.70;58.75;;;;;;;6.83;87.48;100743.00;5024761;28;20034;-65
2022/03/28 06:49:45;;;;;;;125.10;56.90;;;;;;;6.88;87.42;100740.19;5019368;28;20133;-66
2022/03/28 06:52:11;;;;;;;152.70;58.60;;;;;;;6.93;87.60;100735.59;5000962;28;20019;-63
2022/03/28 06:54:36;;;;;;;125.65;55.88;;;;;;;6.96;87.66;100727.66;5003815;28;20029;-66
2022/03/28 06:57:03;;;;;;;126.95;57.05;;;;;;;7.04;86.99;100725.53;5026894;28;20033;-64
2022/03/28 06:59:29;;;;;;;129.05;55.47;;;;;;;7.10;86.89;100719.22;5018629;28;20036;-67
2022/03/28 07:01:54;;;;;;;132.43;57.53;;;;;;;7.20;86.68;100723.09;5023017;28;20042;-68
2022/03/28 07:04:21;;;;;;;131.73;54.38;;;;;;;7.28;86.68;100731.41;5018034;28;20124;-66
2022/03/28 07:06:47;;;;;;;121.35;53.60;;;;;;;7.33;86.31;100721.59;5021846;28;20095;-65
2022/03/28 07:09:12;;;;;;;141.77;56.33;;;;;;;7.42;86.24;100726.41;5015506;28;20037;-65
2022/03/28 07:11:38;;;;;;;113.30;52.13;;;;;;;7.52;85.59;100725.03;5004611;28;20076;-66
2022/03/28 07:14:03;;;;;;;130.88;52.95;;;;;;;7.60;85.12;100721.22;5010023;28;20079;-65
2022/03/28 07:16:28;;;;;;;124.20;54.35;;;;;;;7.67;85.19;100712.19;5018189;28;20484;-66
2022/03/28 07:18:53;;;;;;;118.13;50.40;;;;;;;7.76;85.18;100716.97;5019251;28;20624;-67
2022/03/28 07:21:19;;;;;;;128.80;51.20;;;;;;;7.84;85.41;100714.00;5022354;28;20042;-69
2022/03/28 07:23:45;;;;;;;122.00;55.05;;;;;;;7.93;84.85;100711.75;5016848;28;20030;-66
2022/03/28 07:26:11;;;;;;;114.47;51.85;;;;;;;8.03;84.69;100708.69;5015472;28;20642;-67
2022/03/28 07:28:39;;;;;;;122.07;54.92;;;;;;;8.10;84.09;100702.25;5022954;28;20026;-66
2022/03/28 07:31:10;;;;;;;123.05;51.92;;;;;;;8.18;83.81;100693.09;5027889;28;20517;-66
2022/03/28 07:33:38;;;;;;;128.18;54.78;;;;;;;8.23;83.59;100685.03;5021538;28;20038;-68
2022/03/28 07:36:05;;;;;;;130.75;54.63;;;;;;;8.35;83.86;100692.25;5023829;28;20060;-65
2022/03/28 07:38:30;;;;;;;143.18;57.00;;;;;;;8.43;83.38;100690.13;5022492;28;20049;-65
2022/03/28 07:40:56;;;;;;;129.85;56.50;;;;;;;8.47;82.87;100680.34;5027428;28;20072;-65
2022/03/28 07:43:22;;;;;;;128.95;55.05;;;;;;;8.56;82.99;100677.25;5006828;28;20079;-66
2022/03/28 07:45:48;;;;;;;131.70;54.65;;;;;;;8.65;82.83;100683.78;5001990;28;20033;-66
2022/03/28 07:48:14;;;;;;;128.25;54.03;;;;;;;8.70;82.49;100677.38;5016930;28;20033;-64
2022/03/28 07:50:40;;;;;;;124.60;54.47;;;;;;;8.80;82.45;100676.91;5020509;28;20040;-67
2022/03/28 07:53:06;;;;;;;127.35;53.17;;;;;;;8.85;82.29;100665.25;5002283;28;20125;-65
2022/03/28 07:55:31;;;;;;;120.78;52.00;;;;;;;8.95;81.99;100671.69;5012320;28;20018;-65
2022/03/28 07:58:01;;;;;;;121.28;55.00;;;;;;;9.03;81.96;100673.03;5024021;28;20030;-65
2022/03/28 08:00:29;;;;;;;125.00;54.75;;;;;;;9.09;82.02;100670.09;5010742;28;20026;-64
2022/03/28 08:02:57;;;;;;;130.18;54.50;;;;;;;9.15;82.02;100662.75;5024952;28;20030;-64
2022/03/28 08:05:24;;;;;;;121.10;53.53;;;;;;;9.28;81.70;100662.09;5025195;28;20144;-65
2022/03/28 08:07:50;;;;;;;121.88;52.10;;;;;;;9.37;81.45;100653.69;5025575;28;20041;-66
2022/03/28 08:10:16;;;;;;;113.90;52.20;;;;;;;9.54;81.16;100652.78;5016219;28;20057;-65
2022/03/28 08:12:43;;;;;;;118.15;50.97;;;;;;;9.65;80.62;100653.00;4988265;28;20555;-65
2022/03/28 08:15:11;;;;;;;117.43;51.45;;;;;;;9.77;80.70;100643.59;5027508;28;20068;-66
2022/03/28 08:17:37;;;;;;;102.22;49.80;;;;;;;9.87;80.11;100636.91;5011837;28;20042;-66
2022/03/28 08:20:06;;;;;;;107.97;49.95;;;;;;;9.97;79.83;100634.56;5014037;28;20500;-67
2022/03/28 08:22:32;;;;;;;108.97;49.15;;;;;;;10.02;79.69;100638.59;5013470;28;20045;-64
2022/03/28 08:24:57;;;;;;;109.57;49.17;;;;;;;10.09;79.95;100634.69;5006413;28;20054;-66
2022/03/28 08:27:23;;;;;;;102.40;46.75;;;;;;;10.21;79.82;100627.03;5010395;28;20377;-65
2022/03/28 08:29:48;;;;;;;101.57;49.05;;;;;;;10.30;79.75;100632.56;5013398;28;20033;-65
2022/03/28 08:32:13;;;;;;;102.95;48.55;;;;;;;10.38;79.76;100630.38;5011801;28;20537;-65
2022/03/28 08:34:38;;;;;;;100.35;48.80;;;;;;;10.49;78.52;100629.69;5006453;28;20037;-66
2022/03/28 08:37:04;;;;;;;103.30;46.75;;;;;;;10.59;78.94;100635.22;5019131;28;20029;-63
2022/03/28 08:39:30;;;;;;;105.65;47.20;;;;;;;10.69;79.16;100632.88;5014720;28;20411;-64
2022/03/28 08:41:56;;;;;;;89.40;43.30;;;;;;;10.75;78.54;100627.25;5009266;28;20033;-66
2022/03/28 08:44:23;;;;;;;99.18;45.63;;;;;;;10.84;78.91;100624.91;5014066;28;20438;-65
2022/03/28 08:46:51;;;;;;;97.22;42.80;;;;;;;10.92;79.00;100620.94;5009354;28;20042;-66
2022/03/28 08:49:18;;;;;;;99.45;45.10;;;;;;;11.05;78.50;100622.72;5011492;28;20442;-66
2022/03/28 08:51:43;;;;;;;84.80;40.60;;;;;;;11.19;77.66;100626.22;5012361;28;20038;-65
2022/03/28 08:54:09;;;;;;;89.10;43.22;;;;;;;11.33;77.11;100626.19;5013415;28;20050;-67
2022/03/28 08:56:34;;;;;;;87.10;41.15;;;;;;;11.42;76.86;100627.34;4997641;28;20069;-64
2022/03/28 08:58:59;;;;;;;83.68;39.33;;;;;;;11.51;76.02;100621.50;5016611;28;20139;-64
2022/03/28 09:01:25;;;;;;;78.80;40.00;;;;;;;11.61;75.07;100625.22;5014498;28;20364;-67
2022/03/28 09:03:50;;;;;;;93.47;40.30;;;;;;;11.69;75.04;100619.47;5015998;28;20022;-67
2022/03/28 09:06:45;;;;;;;83.45;39.80;;;;;;;11.77;75.40;100612.75;4994162;28;20076;-66
2022/03/28 09:09:24;;;;;;;82.15;40.50;;;;;;;11.93;75.08;100611.75;4994628;28;20739;-65
2022/03/28 09:11:54;;;;;;;70.13;35.40;;;;;;;12.03;74.52;100608.41;5016920;28;20038;-65
2022/03/28 09:14:36;;;;;;;77.10;38.00;;;;;;;12.11;73.63;100608.72;5009833;28;20144;-65
2022/03/28 09:17:13;;;;;;;65.60;34.95;;;;;;;12.28;72.74;100612.00;5011987;28;20037;-63
2022/03/28 09:20:02;;;;;;;85.20;34.00;;;;;;;12.51;70.68;100610.41;5011543;28;20056;-65
2022/03/28 09:22:34;;;;;;;65.78;32.63;;;;;;;12.60;70.85;100612.38;5014932;28;20092;-67
2022/03/28 09:25:08;;;;;;;62.13;32.78;;;;;;;12.72;69.91;100616.78;5014098;28;20048;-66
2022/03/28 09:27:37;;;;;;;64.80;32.33;;;;;;;12.80;68.84;100606.56;5008919;28;20507;-67
2022/03/28 09:30:30;;;;;;;67.57;31.77;;;;;;;12.89;68.49;100598.94;5014220;28;20107;-69
2022/03/28 09:32:55;;;;;;;65.00;31.27;;;;;;;12.97;68.70;100597.44;5014504;28;20034;-66
2022/03/28 09:35:22;;;;;;;63.17;29.67;;;;;;;12.99;68.51;100595.53;5012464;28;20064;-67
2022/03/28 09:37:50;;;;;;;60.38;29.65;;;;;;;13.08;67.89;100588.75;4997865;28;20033;-66
2022/03/28 09:40:21;;;;;;;59.33;28.27;;;;;;;13.19;67.63;100580.91;5013895;28;20022;-66
2022/03/28 09:42:50;;;;;;;58.47;24.27;;;;;;;13.38;65.12;100587.50;5011500;28;20058;-66
2022/03/28 09:45:27;;;;;;;51.30;24.90;;;;;;;13.49;64.36;100575.22;5013056;28;20352;-66
2022/03/28 09:48:02;;;;;;;47.10;23.45;;;;;;;13.65;64.81;100580.19;4989545;28;20081;-66
2022/03/28 09:50:29;;;;;;;50.45;22.63;;;;;;;13.66;63.45;100573.97;5010137;28;20056;-67
2022/03/28 09:52:55;;;;;;;44.13;21.90;;;;;;;13.67;63.21;100570.38;4997717;28;20405;-67
2022/03/28 09:55:20;;;;;;;47.35;21.67;;;;;;;13.70;62.67;100558.75;5012858;28;20061;-66
2022/03/28 09:57:45;;;;;;;44.05;22.33;;;;;;;13.78;62.68;100561.66;5010360;28;20049;-64
2022/03/28 10:00:14;;;;;;;48.63;24.25;;;;;;;13.83;62.67;100562.16;5015646;28;20049;-66
2022/03/28 10:02:40;;;;;;;52.60;24.60;;;;;;;13.94;62.31;100556.03;5013145;28;20037;-66
2022/03/28 10:05:06;;;;;;;51.85;24.10;;;;;;;14.07;62.44;100555.94;5011265;28;20044;-66
2022/03/28 10:07:32;;;;;;;47.63;21.50;;;;;;;14.10;60.90;100547.81;5009550;28;20090;-66
2022/03/28 10:09:58;;;;;;;45.78;21.80;;;;;;;14.09;61.32;100538.19;5016681;28;20112;-65
2022/03/28 10:12:24;;;;;;;47.10;21.45;;;;;;;14.16;60.55;100539.41;5011943;28;20105;-64
2022/03/28 10:14:54;;;;;;;52.35;21.25;;;;;;;14.22;60.99;100536.28;5013692;28;21430;-67
2022/03/28 10:17:19;;;;;;;49.45;24.45;;;;;;;14.21;60.60;100527.53;5010818;28;20033;-67
2022/03/28 10:19:45;;;;;;;43.90;21.58;;;;;;;14.25;60.01;100539.53;5013198;28;20034;-66
2022/03/28 10:22:15;;;;;;;45.22;22.95;;;;;;;14.24;59.78;100527.31;5014080;28;20034;-66
2022/03/28 10:24:43;;;;;;;46.38;22.17;;;;;;;14.28;59.69;100520.81;5002071;28;20049;-66
2022/03/28 10:27:10;;;;;;;48.83;22.60;;;;;;;14.36;59.69;100517.59;4993338;28;20052;-66
2022/03/28 10:29:41;;;;;;;49.13;23.13;;;;;;;14.47;59.20;100516.72;5000639;28;21244;-66
2022/03/28 10:32:13;;;;;;;41.58;21.42;;;;;;;14.54;59.38;100499.47;5007142;28;20042;-66
2022/03/28 10:34:54;;;;;;;45.17;20.83;;;;;;;14.68;58.49;100501.00;5009360;28;20124;-65
2022/03/28 10:37:31;;;;;;;45.83;20.70;;;;;;;14.62;57.29;100498.88;5002081;28;20034;-67
2022/03/28 10:40:11;;;;;;;38.10;19.45;;;;;;;14.70;58.48;100507.00;5009959;28;20056;-67
2022/03/28 10:42:37;;;;;;;49.50;22.42;;;;;;;14.79;58.02;100489.56;5013897;28;20034;-67
2022/03/28 10:45:10;;;;;;;52.42;22.65;;;;;;;14.89;57.29;100493.13;5011176;28;20070;-66
2022/03/28 10:47:45;;;;;;;42.97;21.17;;;;;;;14.88;57.11;100489.66;5009749;28;20026;-66
2022/03/28 10:50:12;;;;;;;55.67;22.73;;;;;;;14.96;56.18;100481.94;5010875;28;20526;-66
2022/03/28 10:52:47;;;;;;;46.97;22.05;;;;;;;15.04;56.09;100489.25;5013016;28;20041;-68
2022/03/28 10:55:12;;;;;;;49.50;23.15;;;;;;;15.10;55.88;100486.09;5013422;28;20052;-67
2022/03/28 10:57:37;;;;;;;48.33;22.67;;;;;;;15.06;55.84;100478.56;5011852;28;20034;-65
2022/03/28 11:00:08;;;;;;;45.28;21.27;;;;;;;15.10;55.47;100477.34;5009501;28;20049;-65
2022/03/28 11:02:34;;;;;;;44.35;20.95;;;;;;;15.17;55.36;100468.78;5008213;28;20089;-67
2022/03/28 11:05:08;;;;;;;48.72;21.95;;;;;;;15.24;55.74;100469.94;5006923;28;20045;-66
2022/03/28 11:07:34;;;;;;;49.88;23.38;;;;;;;15.31;55.62;100461.47;4989867;28;20037;-66
2022/03/28 11:10:03;;;;;;;52.80;23.00;;;;;;;15.36;54.74;100462.78;5010039;28;20456;-66
2022/03/28 11:12:32;;;;;;;58.47;26.48;;;;;;;15.36;55.08;100451.38;5011255;28;20026;-65
2022/03/28 11:15:22;;;;;;;49.78;23.83;;;;;;;15.37;54.75;100445.97;5011766;28;20046;-66